Algiers, Indiana
Current Conditions -  °F | °C
As of 3:35 PM on Monday 24 Nov 2014 (Local Time) from KDCY Reporting Station
Overcast Overcast  
Wind Chill:   Ceiling: 4900
Heat Index:   Visibility: 10mi
Dew Point:   Wind: 15mph
Humidity: 68%   Direction: 260°W
Pressure: 29.79"   Gusts: 21mph
Location:  38.4723°N, 87.3105°W
Report Text: KDCY 242135Z AUTO 26013G18KT 10SM OVC049 06/00 A2979 RMK AO2 T00570002
Loading
Personal Weather Stations






























Interactive Weather Map New forecast layout! Learn more

10-Day Weather Forecast

Advertisements
Track Severe Weather on mobile